createdAt,value
2023-02-19T00:03:20.326Z,8.1
2023-02-19T00:08:39.353Z,7.97
2023-02-19T00:13:58.941Z,7.97
2023-02-19T00:19:18.582Z,7.91
2023-02-19T00:24:37.679Z,7.93
2023-02-19T00:29:57.114Z,7.95
2023-02-19T00:35:16.490Z,7.9
2023-02-19T00:41:50.606Z,7.86
2023-02-19T00:45:56.410Z,7.81
2023-02-19T00:51:14.208Z,7.79
2023-02-19T00:56:33.176Z,7.81
2023-02-19T01:01:51.533Z,7.83
2023-02-19T01:07:10.875Z,7.91
2023-02-19T01:12:30.315Z,7.93
2023-02-19T01:17:49.671Z,7.98
2023-02-19T01:23:08.623Z,7.98
2023-02-19T01:28:27.708Z,7.98
2023-02-19T01:33:46.519Z,7.97
2023-02-19T01:39:05.742Z,8.04
2023-02-19T01:44:24.479Z,8.07
2023-02-19T01:49:44.292Z,8.12
2023-02-19T01:55:04.063Z,8.14
2023-02-19T02:00:22.959Z,8.17
2023-02-19T02:05:42.948Z,8.1
2023-02-19T02:11:02.596Z,8.08
2023-02-19T02:16:21.957Z,8.05
2023-02-19T02:21:41.452Z,8.04
2023-02-19T02:27:00.235Z,8.07
2023-02-19T02:32:19.686Z,8.05
2023-02-19T02:37:39.121Z,8.05
2023-02-19T02:42:58.831Z,8.1
2023-02-19T02:48:17.804Z,8.17
2023-02-19T02:53:37.090Z,8.12
2023-02-19T02:58:56.039Z,8.14
2023-02-19T03:04:15.742Z,8.14
2023-02-19T03:09:34.536Z,8.17
2023-02-19T03:14:53.961Z,8.14
2023-02-19T03:20:12.893Z,8.1
2023-02-19T03:20:37.466Z,8.31
2023-02-19T03:25:56.976Z,8.1
2023-02-19T03:31:16.598Z,8.08
2023-02-19T03:36:36.033Z,8.1
2023-02-19T03:41:55.624Z,8.07
2023-02-19T03:47:14.594Z,8.1
2023-02-19T03:52:33.561Z,8.14
2023-02-19T03:57:52.934Z,8.12
2023-02-19T04:03:12.308Z,8.17
2023-02-19T04:08:31.213Z,8.12
2023-02-19T04:13:50.288Z,8.18
2023-02-19T04:19:10.076Z,8.22
2023-02-19T04:24:30.125Z,8.25
2023-02-19T04:29:50.557Z,8.28
2023-02-19T04:35:09.487Z,8.34
2023-02-19T04:40:28.821Z,8.38
2023-02-19T04:45:47.323Z,8.43
2023-02-19T04:51:06.527Z,8.45
2023-02-19T04:56:25.910Z,8.43
2023-02-19T05:01:44.707Z,8.43
2023-02-19T05:07:03.982Z,8.39
2023-02-19T05:12:23.409Z,8.1
2023-02-19T05:17:42.229Z,8
2023-02-19T05:23:01.791Z,8.08
2023-02-19T05:28:20.915Z,8.17
2023-02-19T05:33:39.844Z,8.24
2023-02-19T05:38:58.935Z,8.24
2023-02-19T05:44:18.529Z,8.29
2023-02-19T05:49:37.521Z,8.29
2023-02-19T05:54:56.620Z,8.17
2023-02-19T06:00:15.376Z,7.95
2023-02-19T06:05:34.821Z,7.83
2023-02-19T06:11:02.050Z,7.77
2023-02-19T06:16:13.540Z,7.74
2023-02-19T06:21:32.385Z,7.76
2023-02-19T06:26:51.672Z,7.77
2023-02-19T06:32:10.662Z,7.87
2023-02-19T06:37:30.163Z,7.87
2023-02-19T06:42:49.830Z,7.98
2023-02-19T06:48:09.543Z,8.02
2023-02-19T06:53:28.858Z,8.1
2023-02-19T06:58:48.122Z,8.12
2023-02-19T07:04:07.362Z,8.04
2023-02-19T07:09:26.967Z,7.83
2023-02-19T07:14:45.465Z,7.69
2023-02-19T07:20:04.915Z,7.65
2023-02-19T07:25:24.043Z,7.65
2023-02-19T07:30:43.557Z,7.69
2023-02-19T07:36:03.134Z,7.79
2023-02-19T07:41:22.861Z,7.93
2023-02-19T07:46:42.341Z,8.17
2023-02-19T07:52:02.023Z,8.24
2023-02-19T07:57:21.316Z,8.28
2023-02-19T08:02:40.863Z,8.35
2023-02-19T08:08:00.500Z,8.35
2023-02-19T08:13:20.280Z,8.42
2023-02-19T08:18:39.284Z,8.47
2023-02-19T08:23:58.547Z,8.45
2023-02-19T08:29:18.085Z,8.47
2023-02-19T08:34:37.762Z,8.55
2023-02-19T08:39:57.362Z,8.8
2023-02-19T08:45:16.313Z,8.93
2023-02-19T08:50:36.003Z,9.01
2023-02-19T08:55:55.276Z,9.01
2023-02-19T09:01:14.701Z,8.89
2023-02-19T09:06:34.197Z,8.93
2023-02-19T09:11:52.489Z,8.96
2023-02-19T09:17:11.495Z,8.93
2023-02-19T09:22:31.936Z,8.89
2023-02-19T09:27:50.374Z,8.89
2023-02-19T09:33:09.918Z,8.87
2023-02-19T09:38:30.076Z,8.91
2023-02-19T09:43:49.133Z,9.01
2023-02-19T09:49:08.355Z,9.17
2023-02-19T09:54:27.815Z,9.2
2023-02-19T09:59:46.677Z,9.18
2023-02-19T10:05:06.424Z,9.16
2023-02-19T10:10:25.808Z,9.16
2023-02-19T10:15:45.190Z,8.96
2023-02-19T10:21:04.657Z,8.7
2023-02-19T10:26:24.620Z,8.76
2023-02-19T10:31:43.696Z,8.91
2023-02-19T10:37:01.812Z,8.89
2023-02-19T10:42:20.795Z,8.77
2023-02-19T10:47:40.041Z,8.93
2023-02-19T10:52:59.662Z,9.22
2023-02-19T10:58:18.535Z,9.39
2023-02-19T11:03:38.272Z,9.74
2023-02-19T11:08:57.960Z,9.88
2023-02-19T11:14:17.459Z,9.79
2023-02-19T11:19:36.406Z,10.22
2023-02-19T11:24:57.870Z,10.6
2023-02-19T11:30:14.543Z,10.6
2023-02-19T11:35:34.244Z,10.64
2023-02-19T11:40:53.706Z,10.53
2023-02-19T11:46:13.357Z,10.24
2023-02-19T11:51:32.102Z,9.96
2023-02-19T11:56:51.323Z,9.88
2023-02-19T12:02:10.942Z,9.79
2023-02-19T12:07:29.601Z,9.81
2023-02-19T12:12:48.990Z,9.91
2023-02-19T12:18:07.720Z,9.95
2023-02-19T12:23:26.630Z,10.02
2023-02-19T12:28:46.097Z,10.06
2023-02-19T12:34:04.630Z,10.09
2023-02-19T12:39:24.444Z,10.16
2023-02-19T12:44:43.991Z,10.26
2023-02-19T12:50:02.935Z,10.12
2023-02-19T12:55:21.693Z,10.02
2023-02-19T13:00:40.564Z,9.89
2023-02-19T13:06:00.199Z,9.55
2023-02-19T13:11:19.114Z,8.68
2023-02-19T13:16:38.493Z,8.39
2023-02-19T13:21:56.917Z,8.25
2023-02-19T13:27:16.079Z,8.41
2023-02-19T13:32:34.940Z,8.52
2023-02-19T13:37:54.546Z,8.58
2023-02-19T13:43:13.989Z,8.64
2023-02-19T13:48:33.672Z,8.58
2023-02-19T13:53:52.779Z,8.25
2023-02-19T13:59:11.924Z,7.9
2023-02-19T14:04:30.956Z,7.71
2023-02-19T14:09:49.850Z,7.71
2023-02-19T14:15:09.107Z,7.83
2023-02-19T14:20:28.085Z,8.1
2023-02-19T14:25:47.817Z,8.31
2023-02-19T14:31:06.904Z,8.46
2023-02-19T14:36:25.847Z,8.55
2023-02-19T14:41:45.583Z,8.63
2023-02-19T14:47:05.006Z,8.8
2023-02-19T14:52:24.611Z,9.21
2023-02-19T14:57:43.903Z,9.26
2023-02-19T15:03:03.648Z,9.1
2023-02-19T15:08:21.928Z,9.13
2023-02-19T15:13:41.542Z,9.18
2023-02-19T15:19:01.121Z,9.27
2023-02-19T15:24:20.038Z,9.26
2023-02-19T15:29:39.098Z,9.14
2023-02-19T15:34:58.803Z,9.1
2023-02-19T15:40:17.856Z,9.14
2023-02-19T15:45:36.693Z,9.21
2023-02-19T15:50:56.234Z,9.21
2023-02-19T15:56:15.597Z,9.18
2023-02-19T16:01:34.638Z,9.1
2023-02-19T16:06:54.191Z,9.1
2023-02-19T16:12:13.277Z,9.13
2023-02-19T16:17:32.151Z,9.07
2023-02-19T16:22:51.712Z,9.03
2023-02-19T16:28:11.223Z,8.97
2023-02-19T16:33:30.363Z,8.63
2023-02-19T16:38:49.545Z,8.52
2023-02-19T16:44:08.713Z,8.59
2023-02-19T16:49:27.900Z,8.64
2023-02-19T16:54:47.555Z,8.68
2023-02-19T17:00:06.349Z,8.76
2023-02-19T17:05:25.922Z,8.77
2023-02-19T17:10:45.027Z,8.79
2023-02-19T17:16:04.324Z,8.68
2023-02-19T17:21:23.860Z,8.7
2023-02-19T17:26:43.606Z,8.62
2023-02-19T17:32:03.072Z,8.47
2023-02-19T17:37:22.328Z,8.25
2023-02-19T17:42:41.269Z,8.1
2023-02-19T17:48:00.638Z,8.07
2023-02-19T17:53:19.730Z,8.1
2023-02-19T17:58:38.553Z,8.2
2023-02-19T18:03:57.354Z,8.1
2023-02-19T18:09:17.500Z,8.01
2023-02-19T18:14:36.237Z,7.94
2023-02-19T18:19:55.515Z,7.95
2023-02-19T18:25:14.612Z,7.97
2023-02-19T18:30:33.713Z,7.91
2023-02-19T18:35:52.633Z,7.77
2023-02-19T18:41:11.896Z,7.58
2023-02-19T18:46:32.277Z,7.49
2023-02-19T18:51:50.622Z,7.45
2023-02-19T18:57:10.785Z,7.35
2023-02-19T19:02:33.789Z,7.25
2023-02-19T19:07:48.947Z,7.32
2023-02-19T19:13:08.185Z,7.42
2023-02-19T19:18:28.634Z,7.46
2023-02-19T19:23:47.074Z,7.42
2023-02-19T19:29:06.485Z,7.48
2023-02-19T19:34:25.542Z,7.65
2023-02-19T19:39:44.969Z,7.79
2023-02-19T19:45:03.843Z,7.8
2023-02-19T19:50:22.908Z,7.83
2023-02-19T19:55:42.545Z,7.86
2023-02-19T20:01:01.851Z,7.84
2023-02-19T20:06:20.591Z,7.81
2023-02-19T20:11:39.438Z,7.86
2023-02-19T20:16:58.632Z,7.9
2023-02-19T20:22:17.927Z,7.81
2023-02-19T20:27:37.593Z,7.76
2023-02-19T20:32:57.242Z,7.76
2023-02-19T20:38:16.708Z,7.8
2023-02-19T20:43:35.939Z,7.83
2023-02-19T20:48:55.067Z,7.8
2023-02-19T20:54:14.584Z,7.73
2023-02-19T20:59:33.904Z,7.71
2023-02-19T21:04:53.374Z,7.77
2023-02-19T21:05:17.695Z,7.95
2023-02-19T21:10:37.444Z,7.8
2023-02-19T21:15:56.319Z,7.77
2023-02-19T21:21:15.696Z,7.83
2023-02-19T21:26:34.979Z,7.84
2023-02-19T21:31:53.903Z,7.76
2023-02-19T21:37:13.354Z,7.74
2023-02-19T21:42:32.154Z,7.67
2023-02-19T21:47:51.884Z,7.66
2023-02-19T21:53:11.028Z,7.65
2023-02-19T21:58:29.829Z,7.65
2023-02-19T22:03:49.522Z,7.69
2023-02-19T22:09:08.255Z,7.62
2023-02-19T22:14:28.001Z,7.58
2023-02-19T22:19:47.784Z,7.55
2023-02-19T22:25:07.308Z,7.62
2023-02-19T22:30:26.436Z,7.59
2023-02-19T22:35:45.838Z,7.56
2023-02-19T22:41:04.697Z,7.52
2023-02-19T22:46:23.987Z,7.6
2023-02-19T22:51:43.146Z,7.58
2023-02-19T22:57:02.992Z,7.63
2023-02-19T23:02:21.071Z,7.6
2023-02-19T23:07:40.346Z,7.62
2023-02-19T23:12:59.102Z,7.62
2023-02-19T23:18:18.445Z,7.59
2023-02-19T23:23:37.616Z,7.6
2023-02-19T23:28:56.762Z,7.56
2023-02-19T23:34:16.577Z,7.53
2023-02-19T23:39:35.448Z,7.52
2023-02-19T23:44:54.174Z,7.45
2023-02-19T23:50:13.765Z,7.35
2023-02-19T23:55:33.243Z,7.3
